Rankings de siempre
Mejores tiempos personales válidos de equipo a través de todos los eventos y temporadas. Cada equipo aparece una vez por división.
Busca por nombre y abre la página donde está clasificado este récord de división.
138,107 equipos clasificados
| Pos. | Pos. AG | Equipo | Nacionalidad | Categoría de edad | TiempoMejor tiempo | Diferencia |
|---|---|---|---|---|---|---|
| 137876 | #49241 | Hale Momoemausu & David MakaM 30-34 · AG #49241 | -- | M 30-34 | 2:23:54 | +96:14 |
| 137877 | #49242 | Nkazimulo Mdluli & Thabiso NtsimeM 30-34 · AG #49242 | -- | M 30-34 | 2:23:56 | +96:16 |
| 137878 | -- | 維駿 徐 & 俞任 林TPE · M MU29 | TPE | M MU29 | 2:24:00 | +96:20 |
| 137879 | #19795 | Ka seng Tam & 加亮 赵HKG · M 40-44 · AG #19795 | HKG | M 40-44 | 2:24:01 | +96:21 |
| 137880 | #49243 | Nana Thompson & Nick JohnsonM 30-34 · AG #49243 | -- | M 30-34 | 2:24:03 | +96:23 |
| 137881 | #4443 | Francisco viera Dias & João Dinis ferreiraPOR · M 45-49 · AG #4443 | POR | M 45-49 | 2:24:04 | +96:24 |
| 137882 | #19796 | 丁 袁 & 旭勤 虞CHN · M 40-44 · AG #19796 | CHN | M 40-44 | 2:24:07 | +96:27 |
| 137883 | #4444 | Kitsana Pongthongcharoen & Pongsakorn TangkhaotongTHA · M 45-49 · AG #4444 | THA | M 45-49 | 2:24:09 | +96:29 |
| 137884 | #49244 | Terrance Chan & Jonathan ChangUSA · M 30-34 · AG #49244 | USA | M 30-34 | 2:24:10 | +96:30 |
| 137885 | #10130 | Mohnish Agrawal & Avsar BosmiyaIND · M 16-24 · AG #10130 | IND | M 16-24 | 2:24:11 | +96:31 |
| 137886 | #3258 | Brian Ng & Kevin SugimuraSIN · M 50-54 · AG #3258 | SIN | M 50-54 | 2:24:13 | +96:33 |
| 137887 | #49245 | Sumit Suhag & Maninder Singh BansalIND · M 30-34 · AG #49245 | IND | M 30-34 | 2:24:15 | +96:35 |
| 137888 | #49246 | Brain Millage & Bradley MillerUSA · M 30-34 · AG #49246 | USA | M 30-34 | 2:24:18 | +96:38 |
| 137889 | #17667 | Aloysius Peter & Lucas YuenSIN · M 25-29 · AG #17667 | SIN | M 25-29 | 2:24:18 | +96:38 |
| 137890 | #49247 | Gaston Gamez navarro & Kevin Gamez navarroMEX · M 30-34 · AG #49247 | MEX | M 30-34 | 2:24:22 | +96:42 |
| 137891 | #17668 | Tyler Davis & Ryan PandyM 25-29 · AG #17668 | -- | M 25-29 | 2:24:32 | +96:52 |
| 137892 | #17669 | Randy Scroppo & Christian GibbsUSA · M 25-29 · AG #17669 | USA | M 25-29 | 2:24:51 | +97:11 |
| 137893 | #3259 | J. Antonio Cortés Arellano & José Antonio Cortés LaresMEX · M 50-54 · AG #3259 | MEX | M 50-54 | 2:24:51 | +97:11 |
| 137894 | #10131 | 胜 吕 & 中 陈CHN · M 16-24 · AG #10131 | CHN | M 16-24 | 2:24:54 | +97:14 |
| 137895 | #49248 | Ho Fung Chan & Shian Ming LeeM 30-34 · AG #49248 | -- | M 30-34 | 2:24:55 | +97:15 |
| 137896 | #49249 | Saeed Saeed & Mohammed MohammedQAT · M 30-34 · AG #49249 | QAT | M 30-34 | 2:24:59 | +97:19 |
| 137897 | #4445 | 振緯 CHEN-WEI 黃 HUANG & 著正 Chu Cheng 温 WenTPE · M 45-49 · AG #4445 | TPE | M 45-49 | 2:25:01 | +97:21 |
| 137898 | #4446 | Natikorn Prakobboon & Suwat WuthichairattanapornTHA · M 45-49 · AG #4446 | THA | M 45-49 | 2:25:02 | +97:22 |
| 137899 | #49250 | Arnulfo Villaseñor Guzmán & Carlos Adrian Tamez HernandezMEX · M 30-34 · AG #49250 | MEX | M 30-34 | 2:25:15 | +97:35 |
| 137900 | #557 | John Chan K T & Kam Fung HungHKG · M 55-59 · AG #557 | HKG | M 55-59 | 2:25:16 | +97:36 |
Página 5,516 de 5,525